Time;durP1;ratioP1;P1;durP2;ratioP2;P2;SDS_P1;SDS_P2;PMS_P1;PMS_P2;Temp;Humidity;BMP_temperature;BMP_pressure;BME280_temperature;BME280_humidity;BME280_pressure;Samples;Min_cycle;Max_cycle;Signal;HPM_P1;HPM_P2
2023/02/05 00:00:29;;;;;;;6.10;2.90;;;;;;;;;;4998819;28;20463;-82
2023/02/05 00:02:56;;;;;;;6.25;2.90;;;;;;;;;;5014143;28;20434;-82
2023/02/05 00:05:24;;;;;;;5.25;2.58;;;;;;;;;;5003056;28;20441;-83
2023/02/05 00:07:57;;;;;;;7.22;3.05;;;;;;;;;;4998843;28;20445;-82
2023/02/05 00:10:31;;;;;;;5.93;2.65;;;;;;;;;;5000002;28;20905;-81
2023/02/05 00:12:59;;;;;;;5.10;2.40;;;;;;;;;;5015518;28;20445;-82
2023/02/05 00:15:32;;;;;;;7.93;2.75;;;;;;;;;;5003024;28;20440;-81
2023/02/05 00:18:05;;;;;;;6.38;2.60;;;;;;;;;;5015431;28;20425;-81
2023/02/05 00:20:37;;;;;;;5.38;2.53;;;;;;;;;;4998220;28;20459;-81
2023/02/05 00:23:05;;;;;;;4.97;2.33;;;;;;;;;;5015654;28;21836;-82
2023/02/05 00:25:39;;;;;;;6.18;2.63;;;;;;;;;;5007473;28;20426;-82
2023/02/05 00:28:07;;;;;;;5.65;2.60;;;;;;;;;;5003984;28;20422;-82
2023/02/05 00:30:40;;;;;;;5.50;2.43;;;;;;;;;;5001749;28;20416;-82
2023/02/05 00:33:08;;;;;;;5.18;2.65;;;;;;;;;;5003664;28;20421;-82
2023/02/05 00:35:42;;;;;;;6.40;2.50;;;;;;;;;;5023163;28;20429;-82
2023/02/05 00:38:11;;;;;;;5.70;2.45;;;;;;;;;;5018743;28;20436;-82
2023/02/05 00:40:41;;;;;;;6.03;2.70;;;;;;;;;;5003419;28;20422;-81
2023/02/05 00:43:09;;;;;;;5.72;2.55;;;;;;;;;;5011552;28;20902;-82
2023/02/05 00:45:37;;;;;;;5.60;2.73;;;;;;;;;;5010168;28;20421;-82
2023/02/05 00:48:05;;;;;;;5.70;2.22;;;;;;;;;;5012072;28;21406;-82
2023/02/05 00:50:33;;;;;;;5.63;2.50;;;;;;;;;;5009260;28;20412;-82
2023/02/05 00:53:06;;;;;;;5.47;2.72;;;;;;;;;;5008630;28;20425;-81
2023/02/05 00:55:34;;;;;;;7.13;2.50;;;;;;;;;;5005773;28;20781;-81
2023/02/05 00:58:04;;;;;;;5.78;2.60;;;;;;;;;;5023980;28;20422;-81
2023/02/05 01:00:36;;;;;;;5.63;2.40;;;;;;;;;;5006210;28;20421;-82
2023/02/05 01:03:04;;;;;;;5.43;2.10;;;;;;;;;;5022493;28;20421;-82
2023/02/05 01:05:33;;;;;;;4.38;2.17;;;;;;;;;;5012889;28;20410;-82
2023/02/05 01:08:01;;;;;;;4.00;2.05;;;;;;;;;;5009454;28;20416;-82
2023/02/05 01:10:36;;;;;;;6.95;2.60;;;;;;;;;;5008739;28;20968;-83
2023/02/05 01:13:11;;;;;;;5.03;2.20;;;;;;;;;;5011864;28;20416;-82
2023/02/05 01:15:39;;;;;;;6.28;2.20;;;;;;;;;;5015446;28;20421;-82
2023/02/05 01:18:12;;;;;;;4.73;2.10;;;;;;;;;;5011733;28;20434;-82
2023/02/05 01:20:41;;;;;;;6.50;2.20;;;;;;;;;;5007781;28;20428;-82
2023/02/05 01:23:09;;;;;;;5.40;2.30;;;;;;;;;;5025494;28;20432;-82
2023/02/05 01:25:42;;;;;;;5.32;2.50;;;;;;;;;;5003027;28;20435;-82
2023/02/05 01:28:10;;;;;;;4.53;2.20;;;;;;;;;;5016466;28;20918;-82
2023/02/05 01:30:48;;;;;;;4.85;2.15;;;;;;;;;;5019796;28;20427;-82
2023/02/05 01:33:31;;;;;;;4.63;2.13;;;;;;;;;;5001295;28;20906;-82
2023/02/05 01:36:04;;;;;;;4.63;2.08;;;;;;;;;;5013558;28;20436;-82
2023/02/05 01:38:33;;;;;;;4.82;2.05;;;;;;;;;;5017433;28;20938;-82
2023/02/05 01:41:08;;;;;;;5.22;2.25;;;;;;;;;;5008621;28;20417;-84
2023/02/05 01:43:36;;;;;;;5.55;2.33;;;;;;;;;;5003946;28;21096;-82
2023/02/05 01:46:11;;;;;;;6.00;2.03;;;;;;;;;;5019847;28;20424;-83
2023/02/05 01:48:42;;;;;;;5.43;2.40;;;;;;;;;;5005273;28;20948;-82
2023/02/05 01:51:11;;;;;;;5.57;2.13;;;;;;;;;;5011041;28;20431;-82
2023/02/05 01:53:46;;;;;;;5.90;2.15;;;;;;;;;;5004547;28;20440;-82
2023/02/05 01:56:21;;;;;;;6.32;2.08;;;;;;;;;;5017331;28;20432;-82
2023/02/05 01:58:51;;;;;;;5.32;2.15;;;;;;;;;;5017374;28;20430;-82
2023/02/05 02:01:21;;;;;;;5.55;2.10;;;;;;;;;;5016674;28;20926;-82
2023/02/05 02:03:49;;;;;;;4.25;1.80;;;;;;;;;;5005140;28;20903;-83
2023/02/05 02:06:22;;;;;;;5.07;1.70;;;;;;;;;;5008382;28;20436;-83
2023/02/05 02:08:54;;;;;;;4.57;2.00;;;;;;;;;;5017477;28;20424;-82
2023/02/05 02:11:28;;;;;;;3.78;1.90;;;;;;;;;;4998965;28;20426;-83
2023/02/05 02:13:58;;;;;;;5.18;1.85;;;;;;;;;;5004573;28;20441;-83
2023/02/05 02:16:28;;;;;;;3.65;1.80;;;;;;;;;;5008167;28;20437;-82
2023/02/05 02:19:02;;;;;;;6.10;2.20;;;;;;;;;;5004032;28;20428;-82
2023/02/05 02:21:48;;;;;;;5.55;1.92;;;;;;;;;;5003869;28;20433;-83
2023/02/05 02:24:41;;;;;;;4.88;1.80;;;;;;;;;;5018153;28;20432;-83
2023/02/05 02:27:17;;;;;;;3.92;1.77;;;;;;;;;;4991160;28;20811;-82
2023/02/05 02:29:53;;;;;;;4.53;1.90;;;;;;;;;;5015349;28;20441;-82
2023/02/05 02:32:29;;;;;;;4.53;1.90;;;;;;;;;;5021512;28;20426;-82
2023/02/05 02:35:00;;;;;;;3.83;1.83;;;;;;;;;;5014178;28;20488;-82
2023/02/05 02:37:33;;;;;;;4.72;2.00;;;;;;;;;;5017253;28;20434;-83
2023/02/05 02:40:05;;;;;;;4.10;2.00;;;;;;;;;;5020214;28;20423;-83
2023/02/05 02:42:34;;;;;;;5.40;1.90;;;;;;;;;;4996322;28;20444;-83
2023/02/05 02:45:09;;;;;;;4.60;1.95;;;;;;;;;;5008282;28;20432;-83
2023/02/05 02:47:40;;;;;;;3.30;1.80;;;;;;;;;;5001050;28;20420;-83
2023/02/05 02:50:11;;;;;;;5.82;2.00;;;;;;;;;;5017933;28;20430;-83
2023/02/05 02:52:45;;;;;;;5.05;2.13;;;;;;;;;;5007242;28;20435;-83
2023/02/05 02:55:19;;;;;;;5.80;2.00;;;;;;;;;;5003278;28;20927;-83
2023/02/05 02:57:53;;;;;;;6.50;2.20;;;;;;;;;;4999645;28;20420;-84
2023/02/05 03:00:23;;;;;;;4.20;1.80;;;;;;;;;;5018211;28;20959;-82
2023/02/05 03:03:00;;;;;;;3.58;1.70;;;;;;;;;;5015694;28;20432;-83
2023/02/05 03:05:29;;;;;;;4.85;1.90;;;;;;;;;;5013648;28;20441;-82
2023/02/05 03:08:05;;;;;;;4.75;1.77;;;;;;;;;;5002059;28;20441;-83
2023/02/05 03:10:37;;;;;;;4.18;2.00;;;;;;;;;;5004612;28;20436;-83
2023/02/05 03:13:05;;;;;;;5.60;1.83;;;;;;;;;;5005631;28;20410;-83
2023/02/05 03:15:35;;;;;;;6.13;1.83;;;;;;;;;;5002448;28;20436;-83
2023/02/05 03:18:08;;;;;;;4.72;1.92;;;;;;;;;;5016881;28;20430;-82
2023/02/05 03:20:38;;;;;;;4.47;1.80;;;;;;;;;;5006011;28;20438;-83
2023/02/05 03:23:12;;;;;;;5.65;1.90;;;;;;;;;;5014705;28;20486;-82
2023/02/05 03:25:39;;;;;;;4.97;1.90;;;;;;;;;;5000447;28;20443;-83
2023/02/05 03:28:09;;;;;;;5.32;2.00;;;;;;;;;;4996268;28;20437;-82
2023/02/05 03:30:46;;;;;;;4.38;1.95;;;;;;;;;;5014966;28;20425;-85
2023/02/05 03:33:33;;;;;;;4.93;2.15;;;;;;;;;;5018291;28;20437;-83
2023/02/05 03:36:09;;;;;;;3.65;1.73;;;;;;;;;;5005646;28;20426;-82
2023/02/05 03:38:44;;;;;;;3.40;1.70;;;;;;;;;;5001214;28;20427;-83
2023/02/05 03:41:16;;;;;;;3.60;1.75;;;;;;;;;;5006812;28;20454;-83
2023/02/05 03:43:47;;;;;;;7.78;1.90;;;;;;;;;;5016598;28;20919;-83
2023/02/05 03:46:18;;;;;;;4.27;1.73;;;;;;;;;;5014165;28;20437;-83
2023/02/05 03:48:59;;;;;;;4.18;1.80;;;;;;;;;;5005785;28;20789;-82
2023/02/05 03:51:31;;;;;;;3.03;1.60;;;;;;;;;;5002731;28;20442;-83
2023/02/05 03:54:10;;;;;;;3.97;1.70;;;;;;;;;;4999462;28;20512;-83
2023/02/05 03:56:42;;;;;;;3.72;1.63;;;;;;;;;;5013653;28;20436;-82
2023/02/05 03:59:12;;;;;;;3.50;1.73;;;;;;;;;;5003978;28;20764;-83
2023/02/05 04:01:43;;;;;;;5.23;1.90;;;;;;;;;;5015812;28;20809;-82
2023/02/05 04:04:11;;;;;;;4.88;1.70;;;;;;;;;;5002476;28;20427;-82
2023/02/05 04:06:46;;;;;;;4.15;1.70;;;;;;;;;;5010648;28;20416;-83
2023/02/05 04:09:14;;;;;;;5.80;1.90;;;;;;;;;;5010790;28;20440;-83
2023/02/05 04:11:41;;;;;;;5.07;1.80;;;;;;;;;;5014540;28;20430;-83
2023/02/05 04:14:18;;;;;;;4.65;1.80;;;;;;;;;;5023581;28;20807;-83
2023/02/05 04:16:52;;;;;;;3.63;1.63;;;;;;;;;;5017955;28;20444;-82
2023/02/05 04:19:27;;;;;;;5.13;1.75;;;;;;;;;;5007833;28;20422;-83
2023/02/05 04:21:58;;;;;;;3.50;1.58;;;;;;;;;;5003414;28;20441;-82
2023/02/05 04:24:27;;;;;;;4.80;1.70;;;;;;;;;;5022374;28;20453;-82
2023/02/05 04:26:55;;;;;;;4.30;1.67;;;;;;;;;;5024162;28;20426;-82
2023/02/05 04:29:28;;;;;;;4.03;1.90;;;;;;;;;;5021512;28;20432;-83
2023/02/05 04:31:59;;;;;;;4.40;1.70;;;;;;;;;;5008345;28;20431;-83
2023/02/05 04:34:32;;;;;;;4.30;1.70;;;;;;;;;;5009488;28;20424;-83
2023/02/05 04:37:07;;;;;;;4.30;1.90;;;;;;;;;;5006154;28;20434;-82
2023/02/05 04:39:35;;;;;;;4.15;2.00;;;;;;;;;;5021756;28;20430;-83
2023/02/05 04:42:03;;;;;;;4.45;1.85;;;;;;;;;;4998184;28;20755;-84
2023/02/05 04:44:31;;;;;;;4.47;1.80;;;;;;;;;;5014828;28;20429;-84
2023/02/05 04:47:05;;;;;;;7.20;1.97;;;;;;;;;;5003396;28;20432;-83
2023/02/05 04:49:39;;;;;;;4.55;1.70;;;;;;;;;;5005926;28;20452;-82
2023/02/05 04:52:07;;;;;;;3.53;1.63;;;;;;;;;;5011173;28;21030;-82
2023/02/05 04:54:40;;;;;;;3.90;1.63;;;;;;;;;;5003273;28;20417;-83
2023/02/05 04:57:12;;;;;;;4.80;2.00;;;;;;;;;;5002875;28;20440;-83
2023/02/05 04:59:45;;;;;;;6.03;1.90;;;;;;;;;;5008824;28;20952;-82
2023/02/05 05:02:15;;;;;;;3.50;1.70;;;;;;;;;;5006576;28;20783;-82
2023/02/05 05:04:42;;;;;;;4.25;1.75;;;;;;;;;;5005267;28;20738;-83
2023/02/05 05:07:15;;;;;;;6.05;2.60;;;;;;;;;;5019474;28;20792;-83
2023/02/05 05:09:43;;;;;;;5.40;1.85;;;;;;;;;;5006583;28;20409;-82
2023/02/05 05:12:16;;;;;;;6.47;2.20;;;;;;;;;;5000716;28;20783;-82
2023/02/05 05:14:44;;;;;;;6.20;2.10;;;;;;;;;;5006839;28;20423;-82
2023/02/05 05:17:18;;;;;;;5.78;2.10;;;;;;;;;;5005443;28;20428;-84
2023/02/05 05:19:45;;;;;;;4.00;1.75;;;;;;;;;;5009208;28;20768;-82
2023/02/05 05:22:18;;;;;;;3.42;1.60;;;;;;;;;;5022677;28;20428;-83
2023/02/05 05:24:51;;;;;;;5.73;1.90;;;;;;;;;;5022531;28;20430;-82
2023/02/05 05:27:24;;;;;;;4.32;1.45;;;;;;;;;;5008962;28;20899;-83
2023/02/05 05:29:56;;;;;;;5.05;1.85;;;;;;;;;;5013775;28;20438;-82
2023/02/05 05:32:31;;;;;;;4.15;1.95;;;;;;;;;;5011464;28;20433;-82
2023/02/05 05:35:04;;;;;;;3.60;1.70;;;;;;;;;;5007892;28;20434;-85
2023/02/05 05:37:31;;;;;;;4.18;1.77;;;;;;;;;;5009276;28;20791;-82
2023/02/05 05:45:40;;;;;;;3.25;1.70;;;;;;;;;;5004554;28;20965;-82
2023/02/05 05:48:09;;;;;;;4.70;1.80;;;;;;;;;;5014537;28;20438;-83
2023/02/05 05:50:37;;;;;;;7.65;2.60;;;;;;;;;;5010768;28;20421;-82
2023/02/05 05:53:06;;;;;;;7.65;3.70;;;;;;;;;;5007048;28;20756;-84
2023/02/05 05:55:34;;;;;;;5.85;2.40;;;;;;;;;;5016547;28;20430;-82
2023/02/05 05:58:02;;;;;;;5.57;2.20;;;;;;;;;;5022553;28;20786;-82
2023/02/05 06:00:30;;;;;;;6.70;1.90;;;;;;;;;;5003138;28;20430;-83
2023/02/05 06:02:57;;;;;;;3.83;1.85;;;;;;;;;;5013678;28;20789;-83
2023/02/05 06:05:32;;;;;;;4.35;1.80;;;;;;;;;;5004110;28;21142;-82
2023/02/05 06:08:05;;;;;;;4.43;1.80;;;;;;;;;;5019236;28;20432;-82
2023/02/05 06:10:33;;;;;;;4.05;1.73;;;;;;;;;;5020495;28;20433;-82
2023/02/05 06:13:01;;;;;;;6.65;2.22;;;;;;;;;;5001969;28;20435;-82
2023/02/05 06:15:29;;;;;;;5.30;2.20;;;;;;;;;;5003920;28;20430;-83
2023/02/05 06:18:02;;;;;;;3.78;1.90;;;;;;;;;;5005746;28;20432;-82
2023/02/05 06:20:30;;;;;;;4.85;1.88;;;;;;;;;;5020639;28;20433;-82
2023/02/05 06:23:04;;;;;;;4.10;1.83;;;;;;;;;;5001594;28;20927;-82
2023/02/05 06:25:31;;;;;;;4.97;1.98;;;;;;;;;;5005843;28;20909;-82
2023/02/05 06:27:59;;;;;;;4.03;1.73;;;;;;;;;;5005165;28;20436;-82
2023/02/05 06:30:32;;;;;;;4.43;1.80;;;;;;;;;;5018135;28;20439;-82
2023/02/05 06:33:05;;;;;;;4.78;2.00;;;;;;;;;;5008085;28;20440;-81
2023/02/05 06:35:38;;;;;;;3.73;1.80;;;;;;;;;;5006884;28;20439;-82
2023/02/05 06:38:12;;;;;;;5.95;2.60;;;;;;;;;;5006203;28;20438;-82
2023/02/05 06:40:45;;;;;;;5.55;2.50;;;;;;;;;;5005986;28;20442;-82
2023/02/05 06:43:17;;;;;;;3.70;2.10;;;;;;;;;;5005272;28;20430;-82
2023/02/05 06:45:45;;;;;;;5.10;2.23;;;;;;;;;;5004363;28;20451;-82
2023/02/05 06:48:13;;;;;;;4.45;2.05;;;;;;;;;;5004896;28;20776;-83
2023/02/05 06:50:46;;;;;;;4.13;2.10;;;;;;;;;;5002641;28;20448;-83
2023/02/05 06:53:15;;;;;;;4.47;2.03;;;;;;;;;;5003936;28;20435;-82
2023/02/05 06:55:48;;;;;;;6.00;2.03;;;;;;;;;;5011379;28;20505;-82
2023/02/05 06:58:16;;;;;;;5.28;2.28;;;;;;;;;;4999347;28;20455;-82
2023/02/05 07:00:49;;;;;;;5.70;2.30;;;;;;;;;;5003507;28;20901;-82
2023/02/05 07:03:16;;;;;;;5.93;2.28;;;;;;;;;;5000570;28;20433;-82
2023/02/05 07:05:49;;;;;;;5.50;2.17;;;;;;;;;;5017937;28;20431;-82
2023/02/05 07:08:23;;;;;;;7.07;3.15;;;;;;;;;;5021235;28;20434;-83
2023/02/05 07:10:56;;;;;;;6.65;2.60;;;;;;;;;;5004228;28;20424;-82
2023/02/05 07:13:24;;;;;;;7.18;2.90;;;;;;;;;;5017746;28;20421;-82
2023/02/05 07:15:56;;;;;;;6.60;2.60;;;;;;;;;;5007189;28;20409;-82
2023/02/05 07:18:24;;;;;;;5.43;2.45;;;;;;;;;;5004495;28;20408;-82
2023/02/05 07:20:57;;;;;;;6.77;2.80;;;;;;;;;;5005434;28;21001;-82
2023/02/05 07:23:31;;;;;;;6.13;2.63;;;;;;;;;;5008986;28;20433;-82
2023/02/05 07:26:07;;;;;;;6.00;2.10;;;;;;;;;;5028207;28;20429;-83
2023/02/05 07:28:40;;;;;;;6.00;2.15;;;;;;;;;;5011873;28;20424;-84
2023/02/05 07:31:14;;;;;;;6.43;2.35;;;;;;;;;;5007915;28;20920;-83
2023/02/05 07:33:48;;;;;;;6.28;2.33;;;;;;;;;;5015604;28;20409;-82
2023/02/05 07:36:16;;;;;;;5.32;2.33;;;;;;;;;;5000342;28;20432;-83
2023/02/05 07:38:46;;;;;;;4.90;2.42;;;;;;;;;;5004499;28;20432;-83
2023/02/05 07:41:15;;;;;;;6.10;2.27;;;;;;;;;;5000201;28;20430;-84
2023/02/05 07:43:43;;;;;;;4.55;2.10;;;;;;;;;;5008392;28;20435;-82
2023/02/05 07:46:15;;;;;;;11.77;2.58;;;;;;;;;;4996121;28;20919;-82
2023/02/05 07:48:43;;;;;;;4.95;2.20;;;;;;;;;;5020781;28;20440;-82
2023/02/05 07:51:17;;;;;;;4.50;2.08;;;;;;;;;;5006187;28;20428;-83
2023/02/05 07:53:52;;;;;;;6.38;2.65;;;;;;;;;;5007291;28;20441;-84
2023/02/05 07:56:20;;;;;;;10.02;3.78;;;;;;;;;;5006257;28;20433;-83
2023/02/05 07:58:53;;;;;;;6.85;3.20;;;;;;;;;;5023509;28;20432;-83
2023/02/05 08:01:26;;;;;;;5.15;2.33;;;;;;;;;;4997625;28;20437;-83
2023/02/05 08:03:58;;;;;;;6.93;3.17;;;;;;;;;;5012575;28;20440;-82
2023/02/05 08:06:32;;;;;;;5.40;2.50;;;;;;;;;;5004284;28;20436;-84
2023/02/05 08:09:06;;;;;;;7.35;3.05;;;;;;;;;;5005147;28;20433;-85
2023/02/05 08:11:39;;;;;;;5.60;2.80;;;;;;;;;;5012388;28;20426;-82
2023/02/05 08:14:06;;;;;;;7.28;3.05;;;;;;;;;;5018566;28;20434;-83
2023/02/05 08:16:39;;;;;;;9.18;3.60;;;;;;;;;;5015384;28;20457;-83
2023/02/05 08:19:09;;;;;;;6.30;2.88;;;;;;;;;;5010423;28;20441;-83
2023/02/05 08:21:42;;;;;;;5.20;2.63;;;;;;;;;;5000663;28;20432;-82
2023/02/05 08:24:16;;;;;;;7.53;3.30;;;;;;;;;;5007430;28;20422;-83
2023/02/05 08:26:49;;;;;;;7.15;3.00;;;;;;;;;;5014860;28;20792;-82
2023/02/05 08:29:17;;;;;;;7.28;3.00;;;;;;;;;;5007197;28;20441;-82
2023/02/05 08:31:44;;;;;;;6.13;2.33;;;;;;;;;;5005787;28;20433;-84
2023/02/05 08:34:17;;;;;;;8.07;2.65;;;;;;;;;;4999285;28;20430;-83
2023/02/05 08:36:47;;;;;;;6.10;2.40;;;;;;;;;;5000102;28;20525;-82
2023/02/05 08:39:21;;;;;;;6.35;2.40;;;;;;;;;;5010781;28;20503;-82
2023/02/05 08:41:49;;;;;;;7.25;2.38;;;;;;;;;;5003895;28;20432;-81
2023/02/05 08:44:22;;;;;;;6.30;2.60;;;;;;;;;;5007033;28;20424;-83
2023/02/05 08:46:55;;;;;;;6.70;2.70;;;;;;;;;;4999082;28;20456;-83
2023/02/05 08:49:28;;;;;;;5.97;2.30;;;;;;;;;;5005639;28;20441;-82
2023/02/05 08:51:57;;;;;;;6.95;2.40;;;;;;;;;;5010175;28;20429;-82
2023/02/05 08:54:26;;;;;;;5.40;2.45;;;;;;;;;;5005331;28;20899;-83
2023/02/05 08:56:53;;;;;;;6.10;3.00;;;;;;;;;;5012049;28;20417;-83
2023/02/05 08:59:22;;;;;;;5.95;2.72;;;;;;;;;;5010245;28;20439;-83
2023/02/05 09:01:49;;;;;;;6.50;2.53;;;;;;;;;;5010673;28;20432;-82
2023/02/05 09:04:22;;;;;;;6.07;2.50;;;;;;;;;;5008956;28;20432;-83
2023/02/05 09:06:51;;;;;;;5.75;2.55;;;;;;;;;;5005271;28;20923;-83
2023/02/05 09:09:18;;;;;;;7.13;2.92;;;;;;;;;;5014596;28;20427;-84
2023/02/05 09:11:52;;;;;;;8.77;2.80;;;;;;;;;;5022706;28;20425;-83
2023/02/05 09:14:20;;;;;;;5.30;2.47;;;;;;;;;;5004281;28;20791;-85
2023/02/05 09:16:48;;;;;;;5.93;2.28;;;;;;;;;;5020626;28;20433;-82
2023/02/05 09:19:21;;;;;;;7.07;2.72;;;;;;;;;;5005541;28;20445;-82
2023/02/05 09:21:48;;;;;;;7.20;2.85;;;;;;;;;;5008957;28;20428;-84
2023/02/05 09:24:16;;;;;;;6.10;2.53;;;;;;;;;;5017990;28;20431;-84
2023/02/05 09:26:44;;;;;;;6.50;2.70;;;;;;;;;;5005701;28;20931;-82
2023/02/05 09:29:19;;;;;;;6.53;2.90;;;;;;;;;;5002305;28;20432;-83
2023/02/05 09:31:46;;;;;;;6.90;3.50;;;;;;;;;;5006090;28;20436;-82
2023/02/05 09:34:14;;;;;;;8.05;3.45;;;;;;;;;;5005477;28;20428;-82
2023/02/05 09:36:47;;;;;;;8.93;3.13;;;;;;;;;;5003744;28;20425;-82
2023/02/05 09:39:15;;;;;;;6.20;2.75;;;;;;;;;;5003926;28;20459;-84
2023/02/05 09:41:53;;;;;;;6.50;2.50;;;;;;;;;;5013041;28;20430;-83
2023/02/05 09:44:34;;;;;;;6.40;2.70;;;;;;;;;;5008904;28;20485;-83
2023/02/05 09:47:05;;;;;;;5.87;3.00;;;;;;;;;;5006046;28;20461;-83
2023/02/05 09:49:38;;;;;;;6.47;2.60;;;;;;;;;;5003047;28;20421;-83
2023/02/05 09:52:17;;;;;;;4.63;2.40;;;;;;;;;;5004803;28;20453;-84
2023/02/05 09:54:52;;;;;;;5.85;2.80;;;;;;;;;;5000232;28;20449;-83
2023/02/05 09:57:30;;;;;;;5.93;2.70;;;;;;;;;;5003230;28;20438;-83
2023/02/05 09:59:59;;;;;;;5.43;2.58;;;;;;;;;;5000555;28;20762;-84
2023/02/05 10:02:29;;;;;;;7.80;2.80;;;;;;;;;;5009561;28;20424;-83
2023/02/05 10:05:03;;;;;;;4.57;2.42;;;;;;;;;;5024034;28;21271;-84
2023/02/05 10:07:42;;;;;;;22.98;10.93;;;;;;;;;;5019391;28;20433;-83
2023/02/05 10:10:21;;;;;;;11.60;4.15;;;;;;;;;;5007684;28;20444;-84
2023/02/05 10:13:02;;;;;;;9.25;3.80;;;;;;;;;;5001035;28;20920;-84
2023/02/05 10:15:47;;;;;;;6.25;2.90;;;;;;;;;;5003261;28;21413;-83
2023/02/05 10:18:24;;;;;;;13.52;7.65;;;;;;;;;;5008541;28;20867;-83
2023/02/05 10:21:01;;;;;;;6.88;3.15;;;;;;;;;;5008312;28;20432;-83
2023/02/05 10:23:42;;;;;;;8.98;2.80;;;;;;;;;;5005417;28;20441;-83
2023/02/05 10:26:16;;;;;;;6.57;3.10;;;;;;;;;;5006057;28;20436;-83
2023/02/05 10:28:59;;;;;;;6.15;2.92;;;;;;;;;;5015893;28;20429;-83
2023/02/05 10:31:40;;;;;;;6.32;3.38;;;;;;;;;;5017820;28;20433;-84
2023/02/05 10:34:16;;;;;;;6.47;2.70;;;;;;;;;;5004480;28;20427;-83
2023/02/05 10:36:51;;;;;;;6.25;3.10;;;;;;;;;;4997234;28;20461;-83
2023/02/05 10:39:25;;;;;;;6.55;2.70;;;;;;;;;;5019516;28;20442;-83
2023/02/05 10:41:55;;;;;;;6.13;3.10;;;;;;;;;;4999607;28;20427;-83
2023/02/05 10:44:25;;;;;;;7.50;3.30;;;;;;;;;;5013517;28;20435;-83
2023/02/05 10:47:15;;;;;;;6.45;3.30;;;;;;;;;;5007934;28;20901;-84
2023/02/05 10:49:50;;;;;;;6.20;3.20;;;;;;;;;;5001324;28;20428;-85
2023/02/05 10:52:23;;;;;;;6.40;3.28;;;;;;;;;;5001515;28;20445;-83
2023/02/05 10:54:56;;;;;;;8.43;3.22;;;;;;;;;;4999856;28;20438;-84
2023/02/05 10:57:25;;;;;;;7.70;3.70;;;;;;;;;;4995319;28;20425;-83
2023/02/05 10:59:59;;;;;;;7.47;3.20;;;;;;;;;;5006066;28;20432;-83
2023/02/05 11:02:36;;;;;;;7.28;3.20;;;;;;;;;;5012311;28;20802;-83
2023/02/05 11:05:15;;;;;;;7.55;3.33;;;;;;;;;;4997537;28;20791;-83
2023/02/05 11:07:49;;;;;;;7.15;3.08;;;;;;;;;;5014692;28;20439;-83
2023/02/05 11:10:23;;;;;;;6.78;3.22;;;;;;;;;;5013162;28;20911;-83
2023/02/05 11:12:53;;;;;;;8.70;4.10;;;;;;;;;;5005343;28;20440;-83
2023/02/05 11:15:27;;;;;;;10.50;4.30;;;;;;;;;;5015605;28;20444;-82
2023/02/05 11:17:59;;;;;;;8.43;3.00;;;;;;;;;;5000022;28;20418;-82
2023/02/05 11:20:33;;;;;;;8.25;3.90;;;;;;;;;;5014274;28;20441;-82
2023/02/05 11:23:16;;;;;;;6.47;3.03;;;;;;;;;;5010659;28;20438;-82
2023/02/05 11:25:50;;;;;;;8.07;3.40;;;;;;;;;;5004567;28;20441;-82
2023/02/05 11:28:26;;;;;;;8.50;3.45;;;;;;;;;;4998982;28;20913;-82
2023/02/05 11:31:18;;;;;;;7.87;4.00;;;;;;;;;;4999696;28;20445;-82
2023/02/05 11:34:04;;;;;;;6.20;3.50;;;;;;;;;;4999690;28;20439;-82
2023/02/05 11:36:37;;;;;;;7.70;3.60;;;;;;;;;;4996971;28;20448;-83
2023/02/05 11:39:20;;;;;;;8.20;3.67;;;;;;;;;;4999529;28;20428;-82
2023/02/05 11:41:55;;;;;;;7.90;3.67;;;;;;;;;;4997781;28;20432;-83
2023/02/05 11:44:30;;;;;;;7.65;3.20;;;;;;;;;;5001777;28;20432;-82
2023/02/05 11:46:59;;;;;;;5.57;2.88;;;;;;;;;;5011763;28;20441;-82
2023/02/05 11:49:31;;;;;;;7.00;3.10;;;;;;;;;;5000424;28;20896;-82
2023/02/05 11:52:08;;;;;;;8.02;3.17;;;;;;;;;;4979831;28;20448;-82
2023/02/05 11:54:44;;;;;;;7.30;3.30;;;;;;;;;;4990670;28;20424;-83
2023/02/05 11:57:29;;;;;;;6.03;3.17;;;;;;;;;;4986613;28;20438;-82
2023/02/05 12:00:18;;;;;;;7.43;3.30;;;;;;;;;;4985482;28;21039;-82
2023/02/05 12:02:48;;;;;;;7.10;2.88;;;;;;;;;;4980635;28;20444;-83
2023/02/05 12:05:25;;;;;;;5.35;2.72;;;;;;;;;;4983227;28;20436;-82
2023/02/05 12:08:01;;;;;;;6.63;3.00;;;;;;;;;;4983325;28;21149;-82
2023/02/05 12:10:33;;;;;;;7.13;2.93;;;;;;;;;;4984098;28;20436;-83
2023/02/05 12:13:10;;;;;;;6.15;2.95;;;;;;;;;;4982294;28;21019;-82
2023/02/05 12:15:47;;;;;;;8.32;3.00;;;;;;;;;;4982941;28;20449;-82
2023/02/05 12:18:24;;;;;;;6.75;3.13;;;;;;;;;;4996688;28;21327;-83
2023/02/05 12:21:06;;;;;;;5.53;2.97;;;;;;;;;;4983432;28;20436;-82
2023/02/05 12:23:51;;;;;;;7.72;3.05;;;;;;;;;;4978407;28;20428;-83
2023/02/05 12:26:29;;;;;;;5.70;2.80;;;;;;;;;;4982175;28;20438;-82
2023/02/05 12:29:06;;;;;;;6.35;2.90;;;;;;;;;;4988969;28;20440;-82
2023/02/05 12:31:42;;;;;;;6.03;3.00;;;;;;;;;;4992272;28;20431;-83
2023/02/05 12:34:23;;;;;;;6.30;2.72;;;;;;;;;;4970729;28;21621;-83
2023/02/05 12:37:04;;;;;;;9.38;4.30;;;;;;;;;;4980014;28;20750;-83
2023/02/05 12:39:38;;;;;;;6.50;3.00;;;;;;;;;;4990447;28;20419;-82
2023/02/05 12:42:13;;;;;;;12.32;9.00;;;;;;;;;;4990816;28;20440;-82
2023/02/05 12:44:47;;;;;;;7.13;2.85;;;;;;;;;;4990845;28;20436;-82
2023/02/05 12:47:36;;;;;;;9.15;4.07;;;;;;;;;;5002503;28;20449;-83
2023/02/05 12:50:14;;;;;;;7.35;3.95;;;;;;;;;;4991941;28;20434;-82
2023/02/05 12:52:57;;;;;;;7.65;3.40;;;;;;;;;;4988542;28;20443;-83
2023/02/05 12:55:36;;;;;;;7.82;3.42;;;;;;;;;;4987983;28;21151;-82
2023/02/05 12:58:05;;;;;;;9.07;4.30;;;;;;;;;;4984245;28;20781;-83
2023/02/05 13:00:34;;;;;;;7.03;2.85;;;;;;;;;;4988877;28;20948;-83
2023/02/05 13:03:06;;;;;;;7.32;3.33;;;;;;;;;;4983404;28;20445;-83
2023/02/05 13:05:41;;;;;;;7.30;2.90;;;;;;;;;;5000102;28;20555;-83
2023/02/05 13:08:19;;;;;;;6.47;3.05;;;;;;;;;;4987747;28;20444;-82
2023/02/05 13:10:54;;;;;;;6.43;3.00;;;;;;;;;;4986136;28;20460;-83
2023/02/05 13:13:25;;;;;;;7.53;3.08;;;;;;;;;;4983591;28;20481;-83
2023/02/05 13:16:00;;;;;;;6.43;3.00;;;;;;;;;;4986979;28;20438;-82
2023/02/05 13:18:29;;;;;;;5.95;2.75;;;;;;;;;;4989897;28;20428;-82
2023/02/05 13:29:50;;;;;;;9.63;3.80;;;;;;;;;;4985286;28;20434;-83
2023/02/05 13:32:29;;;;;;;8.25;3.78;;;;;;;;;;4990820;28;20435;-84
2023/02/05 13:34:58;;;;;;;7.30;3.23;;;;;;;;;;5002024;28;20448;-82
2023/02/05 13:37:34;;;;;;;6.43;2.90;;;;;;;;;;4992289;28;20424;-83
2023/02/05 13:40:21;;;;;;;6.70;2.92;;;;;;;;;;4990192;28;20431;-82
2023/02/05 13:43:01;;;;;;;6.85;3.25;;;;;;;;;;4981859;28;20426;-83
2023/02/05 13:45:48;;;;;;;6.38;3.20;;;;;;;;;;5006359;28;20448;-83
2023/02/05 13:48:26;;;;;;;7.60;3.53;;;;;;;;;;4988589;28;20429;-84
2023/02/05 13:51:08;;;;;;;6.70;3.15;;;;;;;;;;4992463;28;20436;-84
2023/02/05 13:53:51;;;;;;;7.78;3.50;;;;;;;;;;4988723;28;21342;-83
2023/02/05 13:56:26;;;;;;;8.52;3.50;;;;;;;;;;4983257;28;20446;-84
2023/02/05 13:58:56;;;;;;;10.77;4.30;;;;;;;;;;4989527;28;20793;-82
2023/02/05 14:01:27;;;;;;;8.35;3.22;;;;;;;;;;4993055;28;20647;-83
2023/02/05 14:04:01;;;;;;;7.50;3.13;;;;;;;;;;5001086;28;20442;-83
2023/02/05 14:06:35;;;;;;;9.63;2.92;;;;;;;;;;4983763;28;20432;-83
2023/02/05 14:09:05;;;;;;;6.93;3.20;;;;;;;;;;4997932;28;21137;-83
2023/02/05 14:11:50;;;;;;;6.95;3.40;;;;;;;;;;4985502;28;20429;-83
2023/02/05 14:14:23;;;;;;;7.90;3.90;;;;;;;;;;4986179;28;20437;-84
2023/02/05 14:16:57;;;;;;;8.93;3.28;;;;;;;;;;4989601;28;20985;-83
2023/02/05 14:19:26;;;;;;;8.77;3.30;;;;;;;;;;4975798;28;20925;-83
2023/02/05 14:22:03;;;;;;;10.63;3.83;;;;;;;;;;4982789;28;20762;-83
2023/02/05 14:24:49;;;;;;;8.55;3.60;;;;;;;;;;4988547;28;20917;-84
2023/02/05 14:27:45;;;;;;;7.03;3.15;;;;;;;;;;4988561;28;20508;-83
2023/02/05 14:30:48;;;;;;;8.27;3.42;;;;;;;;;;4995192;28;21062;-82
2023/02/05 14:33:30;;;;;;;9.77;4.27;;;;;;;;;;4982284;28;21237;-82
2023/02/05 14:36:19;;;;;;;7.53;3.97;;;;;;;;;;4996262;28;20450;-83
2023/02/05 14:38:54;;;;;;;6.90;3.30;;;;;;;;;;4983880;28;20434;-83
2023/02/05 14:41:24;;;;;;;5.90;3.10;;;;;;;;;;4983263;28;20903;-83
2023/02/05 14:43:56;;;;;;;7.55;3.17;;;;;;;;;;4985998;28;20437;-83
2023/02/05 14:46:30;;;;;;;6.15;3.08;;;;;;;;;;4991408;28;20436;-83
2023/02/05 14:48:59;;;;;;;7.18;3.20;;;;;;;;;;4983900;28;20444;-83
2023/02/05 14:51:31;;;;;;;6.97;3.33;;;;;;;;;;4983788;28;20444;-83
2023/02/05 14:54:06;;;;;;;7.50;3.70;;;;;;;;;;4991940;28;20435;-83
2023/02/05 14:56:40;;;;;;;6.50;3.13;;;;;;;;;;4984336;28;20434;-82
2023/02/05 14:59:19;;;;;;;6.00;2.92;;;;;;;;;;4987934;28;20444;-83
2023/02/05 15:01:52;;;;;;;6.53;3.15;;;;;;;;;;4981767;28;20433;-83
2023/02/05 15:04:27;;;;;;;8.40;3.72;;;;;;;;;;4984445;28;20429;-83
2023/02/05 15:07:06;;;;;;;8.93;3.63;;;;;;;;;;4986738;28;21356;-83
2023/02/05 15:09:44;;;;;;;6.80;3.47;;;;;;;;;;4990248;28;20439;-83
2023/02/05 15:12:28;;;;;;;8.20;3.65;;;;;;;;;;4978803;28;20443;-83
2023/02/05 15:15:18;;;;;;;5.40;3.30;;;;;;;;;;4995710;28;20451;-83
2023/02/05 15:17:49;;;;;;;6.13;3.50;;;;;;;;;;4986854;28;20445;-82
2023/02/05 15:20:25;;;;;;;8.27;3.88;;;;;;;;;;4985901;28;20431;-83
2023/02/05 15:23:01;;;;;;;7.88;3.22;;;;;;;;;;4973300;28;20429;-83
2023/02/05 15:25:41;;;;;;;10.77;4.00;;;;;;;;;;4998509;28;20437;-83
2023/02/05 15:28:18;;;;;;;15.13;6.78;;;;;;;;;;4990549;28;20441;-83
2023/02/05 15:30:54;;;;;;;18.42;8.95;;;;;;;;;;4981956;28;20432;-83
2023/02/05 15:33:37;;;;;;;17.92;8.23;;;;;;;;;;4984225;28;20436;-83